sensor_id;sensor_type;location;lat;lon;timestamp;pressure;altitude;pressure_sealevel;temperature;humidity
54978;BME280;40873;47.522;19.106;2022-10-30T00:02:01;101140.03;;;12.10;100.00
54978;BME280;40873;47.522;19.106;2022-10-30T00:04:29;101132.97;;;12.11;100.00
54978;BME280;40873;47.522;19.106;2022-10-30T00:06:56;101135.34;;;12.15;100.00
54978;BME280;40873;47.522;19.106;2022-10-30T00:09:23;101130.47;;;12.07;100.00
54978;BME280;40873;47.522;19.106;2022-10-30T00:11:50;101137.22;;;12.13;100.00
54978;BME280;40873;47.522;19.106;2022-10-30T00:14:17;101123.38;;;12.08;100.00
54978;BME280;40873;47.522;19.106;2022-10-30T00:16:43;101122.44;;;12.09;100.00
54978;BME280;40873;47.522;19.106;2022-10-30T00:19:10;101125.03;;;12.11;100.00
54978;BME280;40873;47.522;19.106;2022-10-30T00:21:37;101125.41;;;12.03;100.00
54978;BME280;40873;47.522;19.106;2022-10-30T00:24:06;101119.31;;;12.18;100.00
54978;BME280;40873;47.522;19.106;2022-10-30T00:26:32;101113.47;;;11.96;100.00
54978;BME280;40873;47.522;19.106;2022-10-30T00:28:59;101122.66;;;11.89;100.00
54978;BME280;40873;47.522;19.106;2022-10-30T00:31:26;101123.59;;;11.88;100.00
54978;BME280;40873;47.522;19.106;2022-10-30T00:33:53;101125.56;;;11.84;100.00
54978;BME280;40873;47.522;19.106;2022-10-30T00:36:22;101120.94;;;11.88;100.00
54978;BME280;40873;47.522;19.106;2022-10-30T00:38:49;101114.34;;;11.96;100.00
54978;BME280;40873;47.522;19.106;2022-10-30T00:41:18;101101.03;;;11.98;100.00
54978;BME280;40873;47.522;19.106;2022-10-30T00:43:46;101106.22;;;11.99;100.00
54978;BME280;40873;47.522;19.106;2022-10-30T00:46:32;101111.28;;;12.04;100.00
54978;BME280;40873;47.522;19.106;2022-10-30T00:49:21;101108.97;;;11.98;100.00
54978;BME280;40873;47.522;19.106;2022-10-30T00:51:51;101107.06;;;12.00;100.00
54978;BME280;40873;47.522;19.106;2022-10-30T00:54:20;101109.69;;;11.84;100.00
54978;BME280;40873;47.522;19.106;2022-10-30T00:56:48;101114.06;;;11.85;100.00
54978;BME280;40873;47.522;19.106;2022-10-30T00:59:21;101119.97;;;11.90;100.00
54978;BME280;40873;47.522;19.106;2022-10-30T01:01:49;101108.03;;;11.99;100.00
54978;BME280;40873;47.522;19.106;2022-10-30T01:04:17;101095.88;;;11.95;100.00
54978;BME280;40873;47.522;19.106;2022-10-30T01:06:45;101104.34;;;12.01;100.00
54978;BME280;40873;47.522;19.106;2022-10-30T01:09:14;101086.19;;;12.27;100.00
54978;BME280;40873;47.522;19.106;2022-10-30T01:11:41;101083.66;;;12.25;100.00
54978;BME280;40873;47.522;19.106;2022-10-30T01:14:09;101091.16;;;12.17;100.00
54978;BME280;40873;47.522;19.106;2022-10-30T01:17:01;101090.56;;;12.12;100.00
54978;BME280;40873;47.522;19.106;2022-10-30T01:19:52;101080.41;;;12.20;100.00
54978;BME280;40873;47.522;19.106;2022-10-30T01:30:51;101070.56;;;12.06;100.00
54978;BME280;40873;47.522;19.106;2022-10-30T01:33:38;101065.47;;;12.03;100.00
54978;BME280;40873;47.522;19.106;2022-10-30T01:36:39;101071.75;;;12.01;100.00
54978;BME280;40873;47.522;19.106;2022-10-30T01:39:11;101073.56;;;12.00;100.00
54978;BME280;40873;47.522;19.106;2022-10-30T01:41:39;101070.56;;;12.06;100.00
54978;BME280;40873;47.522;19.106;2022-10-30T01:44:32;101073.97;;;11.93;100.00
54978;BME280;40873;47.522;19.106;2022-10-30T01:47:07;101074.16;;;11.90;100.00
54978;BME280;40873;47.522;19.106;2022-10-30T01:50:07;101073.22;;;11.91;100.00
54978;BME280;40873;47.522;19.106;2022-10-30T01:52:43;101082.09;;;11.90;100.00
54978;BME280;40873;47.522;19.106;2022-10-30T01:55:37;101080.28;;;11.90;100.00
54978;BME280;40873;47.522;19.106;2022-10-30T01:58:19;101083.59;;;11.94;100.00
54978;BME280;40873;47.522;19.106;2022-10-30T02:00:52;101080.97;;;11.94;100.00
54978;BME280;40873;47.522;19.106;2022-10-30T02:03:22;101087.09;;;11.94;100.00
54978;BME280;40873;47.522;19.106;2022-10-30T02:05:52;101087.00;;;11.96;100.00
54978;BME280;40873;47.522;19.106;2022-10-30T02:08:20;101075.53;;;11.97;100.00
54978;BME280;40873;47.522;19.106;2022-10-30T02:10:48;101076.91;;;12.04;100.00
54978;BME280;40873;47.522;19.106;2022-10-30T02:13:16;101080.53;;;12.01;100.00
54978;BME280;40873;47.522;19.106;2022-10-30T02:15:44;101073.56;;;12.00;100.00
54978;BME280;40873;47.522;19.106;2022-10-30T02:18:12;101077.91;;;12.01;100.00
54978;BME280;40873;47.522;19.106;2022-10-30T02:20:39;101081.41;;;12.02;100.00
54978;BME280;40873;47.522;19.106;2022-10-30T02:23:06;101082.34;;;12.01;100.00
54978;BME280;40873;47.522;19.106;2022-10-30T02:25:35;101076.97;;;12.02;100.00
54978;BME280;40873;47.522;19.106;2022-10-30T02:28:02;101075.69;;;11.94;100.00
54978;BME280;40873;47.522;19.106;2022-10-30T02:30:28;101071.66;;;11.87;100.00
54978;BME280;40873;47.522;19.106;2022-10-30T02:32:55;101065.38;;;11.89;100.00
54978;BME280;40873;47.522;19.106;2022-10-30T02:35:23;101058.34;;;11.88;100.00
54978;BME280;40873;47.522;19.106;2022-10-30T02:37:50;101050.41;;;11.88;100.00
54978;BME280;40873;47.522;19.106;2022-10-30T02:40:17;101058.44;;;11.87;100.00
54978;BME280;40873;47.522;19.106;2022-10-30T02:42:43;101059.06;;;11.92;100.00
54978;BME280;40873;47.522;19.106;2022-10-30T02:45:10;101067.31;;;11.86;100.00
54978;BME280;40873;47.522;19.106;2022-10-30T02:47:37;101066.38;;;11.87;100.00
54978;BME280;40873;47.522;19.106;2022-10-30T02:50:05;101063.13;;;11.82;100.00
54978;BME280;40873;47.522;19.106;2022-10-30T02:52:31;101073.69;;;11.82;100.00
54978;BME280;40873;47.522;19.106;2022-10-30T02:54:59;101077.28;;;11.80;100.00
54978;BME280;40873;47.522;19.106;2022-10-30T02:57:25;101071.84;;;11.84;100.00
54978;BME280;40873;47.522;19.106;2022-10-30T02:59:52;101078.13;;;11.81;100.00
54978;BME280;40873;47.522;19.106;2022-10-30T03:02:19;101077.88;;;11.86;100.00
54978;BME280;40873;47.522;19.106;2022-10-30T03:04:46;101070.34;;;11.78;100.00
54978;BME280;40873;47.522;19.106;2022-10-30T03:07:13;101081.00;;;11.76;100.00
54978;BME280;40873;47.522;19.106;2022-10-30T03:09:40;101079.03;;;11.80;100.00
54978;BME280;40873;47.522;19.106;2022-10-30T03:12:07;101070.25;;;11.79;100.00
54978;BME280;40873;47.522;19.106;2022-10-30T03:14:34;101072.97;;;11.78;100.00
54978;BME280;40873;47.522;19.106;2022-10-30T03:17:00;101076.66;;;11.75;100.00
54978;BME280;40873;47.522;19.106;2022-10-30T03:19:27;101072.97;;;11.78;100.00
54978;BME280;40873;47.522;19.106;2022-10-30T03:21:54;101088.84;;;11.78;100.00
54978;BME280;40873;47.522;19.106;2022-10-30T03:24:21;101083.56;;;11.78;100.00
54978;BME280;40873;47.522;19.106;2022-10-30T03:26:48;101071.00;;;11.83;100.00
54978;BME280;40873;47.522;19.106;2022-10-30T03:29:15;101079.44;;;11.90;100.00
54978;BME280;40873;47.522;19.106;2022-10-30T03:31:42;101076.94;;;11.87;100.00
54978;BME280;40873;47.522;19.106;2022-10-30T03:34:08;101076.19;;;11.85;100.00
54978;BME280;40873;47.522;19.106;2022-10-30T03:36:35;101070.19;;;11.81;100.00
54978;BME280;40873;47.522;19.106;2022-10-30T03:39:03;101072.84;;;11.81;100.00
54978;BME280;40873;47.522;19.106;2022-10-30T03:41:30;101070.81;;;11.86;100.00
54978;BME280;40873;47.522;19.106;2022-10-30T03:43:56;101068.34;;;11.83;100.00
54978;BME280;40873;47.522;19.106;2022-10-30T03:46:23;101069.41;;;11.79;100.00
54978;BME280;40873;47.522;19.106;2022-10-30T03:48:50;101069.34;;;11.80;100.00
54978;BME280;40873;47.522;19.106;2022-10-30T03:51:17;101059.69;;;11.79;100.00
54978;BME280;40873;47.522;19.106;2022-10-30T03:53:44;101054.28;;;11.83;100.00
54978;BME280;40873;47.522;19.106;2022-10-30T03:56:11;101063.16;;;11.80;100.00
54978;BME280;40873;47.522;19.106;2022-10-30T03:58:38;101060.84;;;11.74;100.00
54978;BME280;40873;47.522;19.106;2022-10-30T04:01:06;101068.03;;;11.72;100.00
54978;BME280;40873;47.522;19.106;2022-10-30T04:03:33;101073.13;;;11.75;100.00
54978;BME280;40873;47.522;19.106;2022-10-30T04:06:00;101068.72;;;11.75;100.00
54978;BME280;40873;47.522;19.106;2022-10-30T04:08:27;101067.16;;;11.71;100.00
54978;BME280;40873;47.522;19.106;2022-10-30T04:10:54;101058.22;;;11.74;100.00
54978;BME280;40873;47.522;19.106;2022-10-30T04:13:21;101065.91;;;11.78;100.00
54978;BME280;40873;47.522;19.106;2022-10-30T04:15:48;101056.38;;;11.76;100.00
54978;BME280;40873;47.522;19.106;2022-10-30T04:18:23;101055.75;;;11.71;100.00
54978;BME280;40873;47.522;19.106;2022-10-30T04:20:50;101051.41;;;11.70;100.00
54978;BME280;40873;47.522;19.106;2022-10-30T04:23:18;101061.03;;;11.71;100.00
54978;BME280;40873;47.522;19.106;2022-10-30T04:25:46;101057.63;;;11.69;100.00
54978;BME280;40873;47.522;19.106;2022-10-30T04:28:13;101053.09;;;11.71;100.00
54978;BME280;40873;47.522;19.106;2022-10-30T04:30:41;101050.47;;;11.71;100.00
54978;BME280;40873;47.522;19.106;2022-10-30T04:33:10;101058.53;;;11.68;100.00
54978;BME280;40873;47.522;19.106;2022-10-30T04:35:37;101058.53;;;11.68;100.00
54978;BME280;40873;47.522;19.106;2022-10-30T04:38:07;101055.22;;;11.64;100.00
54978;BME280;40873;47.522;19.106;2022-10-30T04:40:36;101063.91;;;11.66;100.00
54978;BME280;40873;47.522;19.106;2022-10-30T04:43:04;101064.00;;;11.65;100.00
54978;BME280;40873;47.522;19.106;2022-10-30T04:45:30;101069.28;;;11.65;100.00
54978;BME280;40873;47.522;19.106;2022-10-30T04:48:06;101062.63;;;11.58;100.00
54978;BME280;40873;47.522;19.106;2022-10-30T04:50:34;101068.13;;;11.53;100.00
54978;BME280;40873;47.522;19.106;2022-10-30T04:53:12;101065.34;;;11.56;100.00
54978;BME280;40873;47.522;19.106;2022-10-30T04:55:40;101068.09;;;11.55;100.00
54978;BME280;40873;47.522;19.106;2022-10-30T04:58:07;101068.94;;;11.55;100.00
54978;BME280;40873;47.522;19.106;2022-10-30T05:00:35;101068.00;;;11.56;100.00
54978;BME280;40873;47.522;19.106;2022-10-30T05:03:02;101061.78;;;11.57;100.00
54978;BME280;40873;47.522;19.106;2022-10-30T05:05:30;101053.06;;;11.55;100.00
54978;BME280;40873;47.522;19.106;2022-10-30T05:07:56;101057.97;;;11.45;100.00
54978;BME280;40873;47.522;19.106;2022-10-30T05:10:24;101050.66;;;11.50;100.00
54978;BME280;40873;47.522;19.106;2022-10-30T05:12:51;101070.78;;;11.53;100.00
54978;BME280;40873;47.522;19.106;2022-10-30T05:15:20;101075.84;;;11.58;100.00
54978;BME280;40873;47.522;19.106;2022-10-30T05:17:50;101078.38;;;11.59;100.00
54978;BME280;40873;47.522;19.106;2022-10-30T05:20:18;101080.28;;;11.57;100.00
54978;BME280;40873;47.522;19.106;2022-10-30T05:22:53;101084.78;;;11.55;100.00
54978;BME280;40873;47.522;19.106;2022-10-30T05:25:20;101085.63;;;11.56;100.00
54978;BME280;40873;47.522;19.106;2022-10-30T05:27:47;101078.38;;;11.59;100.00
54978;BME280;40873;47.522;19.106;2022-10-30T05:30:14;101079.34;;;11.58;100.00
54978;BME280;40873;47.522;19.106;2022-10-30T05:32:40;101082.81;;;11.59;100.00
54978;BME280;40873;47.522;19.106;2022-10-30T05:35:07;101085.16;;;11.65;100.00
54978;BME280;40873;47.522;19.106;2022-10-30T05:37:34;101075.50;;;11.64;100.00
54978;BME280;40873;47.522;19.106;2022-10-30T05:40:01;101083.53;;;11.62;100.00
54978;BME280;40873;47.522;19.106;2022-10-30T05:42:28;101083.44;;;11.64;100.00
54978;BME280;40873;47.522;19.106;2022-10-30T05:44:55;101082.50;;;11.65;100.00
54978;BME280;40873;47.522;19.106;2022-10-30T05:47:28;101076.44;;;11.63;100.00
54978;BME280;40873;47.522;19.106;2022-10-30T05:49:55;101092.22;;;11.64;100.00
54978;BME280;40873;47.522;19.106;2022-10-30T05:52:22;101086.00;;;11.65;100.00
54978;BME280;40873;47.522;19.106;2022-10-30T05:54:48;101085.06;;;11.66;100.00
54978;BME280;40873;47.522;19.106;2022-10-30T05:57:15;101088.31;;;11.71;100.00
54978;BME280;40873;47.522;19.106;2022-10-30T05:59:42;101092.56;;;11.74;100.00
54978;BME280;40873;47.522;19.106;2022-10-30T06:02:09;101087.47;;;11.71;100.00
54978;BME280;40873;47.522;19.106;2022-10-30T06:04:36;101082.78;;;11.76;100.00
54978;BME280;40873;47.522;19.106;2022-10-30T06:07:03;101079.34;;;11.74;100.00
54978;BME280;40873;47.522;19.106;2022-10-30T06:09:29;101085.91;;;11.84;100.00
54978;BME280;40873;47.522;19.106;2022-10-30T06:11:56;101082.31;;;11.85;100.00
54978;BME280;40873;47.522;19.106;2022-10-30T06:14:24;101086.13;;;11.79;100.00
54978;BME280;40873;47.522;19.106;2022-10-30T06:16:51;101081.56;;;11.83;100.00
54978;BME280;40873;47.522;19.106;2022-10-30T06:19:17;101082.47;;;11.82;100.00
54978;BME280;40873;47.522;19.106;2022-10-30T06:21:45;101084.13;;;11.85;100.00
54978;BME280;40873;47.522;19.106;2022-10-30T06:24:12;101082.00;;;11.91;100.00
54978;BME280;40873;47.522;19.106;2022-10-30T06:26:39;101084.72;;;11.90;100.00
54978;BME280;40873;47.522;19.106;2022-10-30T06:29:06;101090.78;;;11.92;100.00
54978;BME280;40873;47.522;19.106;2022-10-30T06:31:33;101099.56;;;11.92;100.00
54978;BME280;40873;47.522;19.106;2022-10-30T06:34:00;101097.88;;;11.91;100.00
54978;BME280;40873;47.522;19.106;2022-10-30T06:36:27;101093.44;;;11.92;100.00
54978;BME280;40873;47.522;19.106;2022-10-30T06:38:54;101108.78;;;12.01;100.00
54978;BME280;40873;47.522;19.106;2022-10-30T06:41:21;101108.16;;;11.96;100.00
54978;BME280;40873;47.522;19.106;2022-10-30T06:43:55;101107.50;;;11.92;100.00
54978;BME280;40873;47.522;19.106;2022-10-30T06:46:22;101113.03;;;11.88;100.00
54978;BME280;40873;47.522;19.106;2022-10-30T06:48:56;101117.31;;;11.90;100.00
54978;BME280;40873;47.522;19.106;2022-10-30T06:51:23;101106.91;;;12.03;100.00
54978;BME280;40873;47.522;19.106;2022-10-30T06:53:50;101108.44;;;12.07;100.00
54978;BME280;40873;47.522;19.106;2022-10-30T06:56:17;101110.47;;;12.02;100.00
54978;BME280;40873;47.522;19.106;2022-10-30T06:58:44;101110.25;;;12.06;100.00
54978;BME280;40873;47.522;19.106;2022-10-30T07:01:11;101111.94;;;12.07;100.00
54978;BME280;40873;47.522;19.106;2022-10-30T07:03:37;101113.94;;;12.04;100.00
54978;BME280;40873;47.522;19.106;2022-10-30T07:06:05;101107.59;;;12.06;100.00
54978;BME280;40873;47.522;19.106;2022-10-30T07:08:32;101109.72;;;12.16;100.00
54978;BME280;40873;47.522;19.106;2022-10-30T07:10:59;101109.06;;;12.12;100.00
54978;BME280;40873;47.522;19.106;2022-10-30T07:13:26;101106.50;;;12.11;100.00
54978;BME280;40873;47.522;19.106;2022-10-30T07:15:52;101107.50;;;12.08;100.00
54978;BME280;40873;47.522;19.106;2022-10-30T07:18:19;101107.38;;;12.11;100.00
54978;BME280;40873;47.522;19.106;2022-10-30T07:20:46;101111.53;;;12.15;100.00
54978;BME280;40873;47.522;19.106;2022-10-30T07:23:13;101104.53;;;12.14;100.00
54978;BME280;40873;47.522;19.106;2022-10-30T07:25:40;101097.44;;;12.15;100.00
54978;BME280;40873;47.522;19.106;2022-10-30T07:28:07;101102.59;;;12.18;100.00
54978;BME280;40873;47.522;19.106;2022-10-30T07:30:34;101114.97;;;12.17;100.00
54978;BME280;40873;47.522;19.106;2022-10-30T07:33:03;101109.50;;;12.20;100.00
54978;BME280;40873;47.522;19.106;2022-10-30T07:35:34;101116.50;;;12.21;100.00
54978;BME280;40873;47.522;19.106;2022-10-30T07:38:06;101118.03;;;12.25;100.00
54978;BME280;40873;47.522;19.106;2022-10-30T07:40:33;101121.69;;;12.23;100.00
54978;BME280;40873;47.522;19.106;2022-10-30T07:43:01;101115.88;;;12.16;100.00
54978;BME280;40873;47.522;19.106;2022-10-30T07:45:29;101122.97;;;12.16;100.00
54978;BME280;40873;47.522;19.106;2022-10-30T07:47:57;101124.84;;;12.14;100.00
54978;BME280;40873;47.522;19.106;2022-10-30T07:50:24;101124.09;;;12.12;100.00
54978;BME280;40873;47.522;19.106;2022-10-30T07:52:51;101117.63;;;12.17;100.00
54978;BME280;40873;47.522;19.106;2022-10-30T07:55:18;101126.22;;;12.21;100.00
54978;BME280;40873;47.522;19.106;2022-10-30T07:57:44;101111.97;;;12.23;100.00
54978;BME280;40873;47.522;19.106;2022-10-30T08:00:13;101127.69;;;12.26;100.00
54978;BME280;40873;47.522;19.106;2022-10-30T08:02:40;101126.91;;;12.24;100.00
54978;BME280;40873;47.522;19.106;2022-10-30T08:05:08;101125.19;;;12.23;100.00
54978;BME280;40873;47.522;19.106;2022-10-30T08:07:37;101127.34;;;12.32;100.00
54978;BME280;40873;47.522;19.106;2022-10-30T08:10:05;101123.56;;;12.37;100.00
54978;BME280;40873;47.522;19.106;2022-10-30T08:12:32;101120.16;;;12.34;100.00
54978;BME280;40873;47.522;19.106;2022-10-30T08:15:00;101124.00;;;12.29;100.00
54978;BME280;40873;47.522;19.106;2022-10-30T08:17:27;101121.97;;;12.34;100.00
54978;BME280;40873;47.522;19.106;2022-10-30T08:19:54;101125.13;;;12.41;100.00
54978;BME280;40873;47.522;19.106;2022-10-30T08:22:23;101121.03;;;12.35;100.00
54978;BME280;40873;47.522;19.106;2022-10-30T08:24:50;101123.75;;;12.33;100.00
54978;BME280;40873;47.522;19.106;2022-10-30T08:27:17;101128.28;;;12.31;100.00
54978;BME280;40873;47.522;19.106;2022-10-30T08:29:44;101127.00;;;12.39;100.00
54978;BME280;40873;47.522;19.106;2022-10-30T08:32:11;101123.06;;;12.30;100.00
54978;BME280;40873;47.522;19.106;2022-10-30T08:34:39;101125.47;;;12.34;100.00
54978;BME280;40873;47.522;19.106;2022-10-30T08:37:06;101125.13;;;12.41;100.00
54978;BME280;40873;47.522;19.106;2022-10-30T08:39:36;101122.03;;;12.48;100.00
54978;BME280;40873;47.522;19.106;2022-10-30T08:42:03;101119.59;;;12.45;100.00
54978;BME280;40873;47.522;19.106;2022-10-30T08:44:30;101121.94;;;12.50;100.00
54978;BME280;40873;47.522;19.106;2022-10-30T08:46:56;101122.13;;;12.47;100.00
54978;BME280;40873;47.522;19.106;2022-10-30T08:49:23;101116.84;;;12.47;100.00
54978;BME280;40873;47.522;19.106;2022-10-30T08:51:50;101121.63;;;12.56;100.00
54978;BME280;40873;47.522;19.106;2022-10-30T08:54:17;101117.06;;;12.58;100.00
54978;BME280;40873;47.522;19.106;2022-10-30T08:56:44;101117.06;;;12.58;100.00
54978;BME280;40873;47.522;19.106;2022-10-30T08:59:11;101117.94;;;12.58;100.00
54978;BME280;40873;47.522;19.106;2022-10-30T09:01:44;101122.81;;;12.66;100.00
54978;BME280;40873;47.522;19.106;2022-10-30T09:04:11;101119.31;;;12.66;100.00
54978;BME280;40873;47.522;19.106;2022-10-30T09:06:38;101118.63;;;12.62;100.00
54978;BME280;40873;47.522;19.106;2022-10-30T09:09:05;101107.78;;;12.67;100.00
54978;BME280;40873;47.522;19.106;2022-10-30T09:11:32;101118.94;;;12.72;100.00
54978;BME280;40873;47.522;19.106;2022-10-30T09:13:58;101114.28;;;12.61;100.00
54978;BME280;40873;47.522;19.106;2022-10-30T09:16:25;101118.53;;;12.63;100.00
54978;BME280;40873;47.522;19.106;2022-10-30T09:18:52;101115.84;;;12.79;100.00
54978;BME280;40873;47.522;19.106;2022-10-30T09:21:19;101124.59;;;12.81;100.00
54978;BME280;40873;47.522;19.106;2022-10-30T09:23:46;101122.94;;;12.79;100.00
54978;BME280;40873;47.522;19.106;2022-10-30T09:26:13;101125.19;;;12.86;100.00
54978;BME280;40873;47.522;19.106;2022-10-30T09:28:51;101125.09;;;12.88;100.00
54978;BME280;40873;47.522;19.106;2022-10-30T09:31:18;101125.25;;;12.85;100.00
54978;BME280;40873;47.522;19.106;2022-10-30T09:33:45;101116.06;;;13.06;100.00
54978;BME280;40873;47.522;19.106;2022-10-30T09:36:12;101116.91;;;12.61;100.00
54978;BME280;40873;47.522;19.106;2022-10-30T09:38:45;101121.09;;;13.11;100.00
54978;BME280;40873;47.522;19.106;2022-10-30T09:44:11;101112.84;;;13.01;100.00
54978;BME280;40873;47.522;19.106;2022-10-30T09:55:56;101102.88;;;13.21;100.00
54978;BME280;40873;47.522;19.106;2022-10-30T10:01:24;101102.75;;;13.38;100.00
54978;BME280;40873;47.522;19.106;2022-10-30T10:06:24;101103.50;;;13.40;100.00
54978;BME280;40873;47.522;19.106;2022-10-30T10:09:05;101097.09;;;13.58;100.00
54978;BME280;40873;47.522;19.106;2022-10-30T10:11:37;101096.03;;;13.61;100.00
54978;BME280;40873;47.522;19.106;2022-10-30T10:14:15;101091.97;;;13.55;100.00
54978;BME280;40873;47.522;19.106;2022-10-30T10:16:48;101084.41;;;13.63;100.00
54978;BME280;40873;47.522;19.106;2022-10-30T10:19:39;101082.03;;;13.73;100.00
54978;BME280;40873;47.522;19.106;2022-10-30T10:24:43;101083.16;;;13.83;100.00
54978;BME280;40873;47.522;19.106;2022-10-30T10:30:23;101083.56;;;13.91;100.00
54978;BME280;40873;47.522;19.106;2022-10-30T10:36:35;101083.72;;;13.88;100.00
54978;BME280;40873;47.522;19.106;2022-10-30T10:39:38;101078.63;;;13.99;100.00
54978;BME280;40873;47.522;19.106;2022-10-30T10:45:11;101082.69;;;14.05;100.00
54978;BME280;40873;47.522;19.106;2022-10-30T10:50:57;101073.47;;;14.11;100.00
54978;BME280;40873;47.522;19.106;2022-10-30T10:53:34;101074.50;;;14.22;100.00
54978;BME280;40873;47.522;19.106;2022-10-30T10:56:04;101070.59;;;14.28;100.00
54978;BME280;40873;47.522;19.106;2022-10-30T10:58:47;101065.25;;;14.42;100.00
54978;BME280;40873;47.522;19.106;2022-10-30T11:01:19;101061.50;;;14.46;100.00
54978;BME280;40873;47.522;19.106;2022-10-30T11:03:49;101052.59;;;14.33;100.00
54978;BME280;40873;47.522;19.106;2022-10-30T11:06:26;101056.72;;;14.37;100.00
54978;BME280;40873;47.522;19.106;2022-10-30T11:09:04;101055.13;;;14.49;100.00
54978;BME280;40873;47.522;19.106;2022-10-30T11:11:37;101056.06;;;14.48;100.00
54978;BME280;40873;47.522;19.106;2022-10-30T11:14:16;101047.94;;;14.64;100.00
54978;BME280;40873;47.522;19.106;2022-10-30T11:19:47;101058.63;;;14.49;100.00
54978;BME280;40873;47.522;19.106;2022-10-30T11:22:25;101056.72;;;14.51;100.00
54978;BME280;40873;47.522;19.106;2022-10-30T11:24:54;101060.56;;;14.60;100.00
54978;BME280;40873;47.522;19.106;2022-10-30T11:29:50;101058.50;;;14.51;100.00
54978;BME280;40873;47.522;19.106;2022-10-30T11:32:20;101060.56;;;14.60;100.00
54978;BME280;40873;47.522;19.106;2022-10-30T11:35:10;101049.69;;;14.50;100.00
54978;BME280;40873;47.522;19.106;2022-10-30T11:37:39;101048.69;;;14.66;100.00
54978;BME280;40873;47.522;19.106;2022-10-30T11:40:21;101039.69;;;14.81;100.00
54978;BME280;40873;47.522;19.106;2022-10-30T11:45:44;101041.81;;;14.76;100.00
54978;BME280;40873;47.522;19.106;2022-10-30T11:50:51;101034.59;;;14.78;100.00
54978;BME280;40873;47.522;19.106;2022-10-30T11:53:24;101027.09;;;14.97;100.00
54978;BME280;40873;47.522;19.106;2022-10-30T11:55:57;101020.19;;;15.07;100.00
54978;BME280;40873;47.522;19.106;2022-10-30T11:58:35;101022.53;;;15.12;100.00
54978;BME280;40873;47.522;19.106;2022-10-30T12:01:06;101025.50;;;15.20;100.00
54978;BME280;40873;47.522;19.106;2022-10-30T12:03:40;101021.03;;;15.21;100.00
54978;BME280;40873;47.522;19.106;2022-10-30T12:06:19;101030.28;;;15.02;100.00
54978;BME280;40873;47.522;19.106;2022-10-30T12:11:37;101024.72;;;14.93;100.00
54978;BME280;40873;47.522;19.106;2022-10-30T12:14:05;101021.88;;;14.96;100.00
54978;BME280;40873;47.522;19.106;2022-10-30T12:16:32;101023.69;;;14.95;100.00
54978;BME280;40873;47.522;19.106;2022-10-30T12:19:06;101032.06;;;14.89;100.00
54978;BME280;40873;47.522;19.106;2022-10-30T12:21:46;101026.34;;;14.95;100.00
54978;BME280;40873;47.522;19.106;2022-10-30T12:24:27;101024.84;;;14.91;100.00
54978;BME280;40873;47.522;19.106;2022-10-30T12:26:57;101014.25;;;15.04;100.00
54978;BME280;40873;47.522;19.106;2022-10-30T12:29:38;100998.59;;;14.99;100.00
54978;BME280;40873;47.522;19.106;2022-10-30T12:32:37;100997.44;;;15.29;100.00
54978;BME280;40873;47.522;19.106;2022-10-30T12:38:11;101008.72;;;15.45;100.00
54978;BME280;40873;47.522;19.106;2022-10-30T12:43:35;101026.47;;;15.19;100.00
54978;BME280;40873;47.522;19.106;2022-10-30T12:46:13;101023.91;;;15.05;100.00
54978;BME280;40873;47.522;19.106;2022-10-30T12:48:52;101020.69;;;14.87;100.00
54978;BME280;40873;47.522;19.106;2022-10-30T12:51:28;101022.47;;;14.74;100.00
54978;BME280;40873;47.522;19.106;2022-10-30T12:54:04;101021.78;;;14.97;100.00
54978;BME280;40873;47.522;19.106;2022-10-30T12:56:37;101021.16;;;14.67;100.00
54978;BME280;40873;47.522;19.106;2022-10-30T13:05:05;101013.56;;;14.88;100.00
54978;BME280;40873;47.522;19.106;2022-10-30T13:07:40;101019.91;;;14.72;100.00
54978;BME280;40873;47.522;19.106;2022-10-30T13:10:27;101010.13;;;14.73;100.00
54978;BME280;40873;47.522;19.106;2022-10-30T13:13:02;101015.13;;;14.65;100.00
54978;BME280;40873;47.522;19.106;2022-10-30T13:15:42;101014.50;;;14.74;100.00
54978;BME280;40873;47.522;19.106;2022-10-30T13:18:14;101010.78;;;14.76;100.00
54978;BME280;40873;47.522;19.106;2022-10-30T13:20:48;101011.50;;;14.66;100.00
54978;BME280;40873;47.522;19.106;2022-10-30T13:23:27;101012.38;;;14.79;100.00
54978;BME280;40873;47.522;19.106;2022-10-30T13:26:07;101006.13;;;14.67;100.00
54978;BME280;40873;47.522;19.106;2022-10-30T13:28:42;101007.47;;;14.73;100.00
54978;BME280;40873;47.522;19.106;2022-10-30T13:36:48;101009.44;;;14.84;100.00
54978;BME280;40873;47.522;19.106;2022-10-30T13:50:20;101011.44;;;14.93;100.00
54978;BME280;40873;47.522;19.106;2022-10-30T13:52:55;101008.91;;;14.91;100.00
54978;BME280;40873;47.522;19.106;2022-10-30T13:55:28;101011.13;;;14.85;100.00
54978;BME280;40873;47.522;19.106;2022-10-30T13:58:15;101006.34;;;14.77;100.00
54978;BME280;40873;47.522;19.106;2022-10-30T14:03:41;100989.28;;;14.67;100.00
54978;BME280;40873;47.522;19.106;2022-10-30T14:06:21;100992.94;;;14.78;100.00
54978;BME280;40873;47.522;19.106;2022-10-30T14:09:05;100994.19;;;14.73;100.00
54978;BME280;40873;47.522;19.106;2022-10-30T14:11:36;101009.09;;;14.75;100.00
54978;BME280;40873;47.522;19.106;2022-10-30T14:14:12;101008.44;;;14.72;100.00